createdAt,value
2023-05-23T00:01:59.035Z,99.90
2023-05-23T00:07:01.839Z,99.90
2023-05-23T00:12:04.757Z,99.90
2023-05-23T00:17:08.512Z,99.90
2023-05-23T00:22:12.183Z,99.90
2023-05-23T00:27:15.260Z,99.90
2023-05-23T00:32:18.334Z,99.90
2023-05-23T00:37:22.697Z,99.90
2023-05-23T00:42:25.404Z,99.90
2023-05-23T00:47:28.770Z,99.90
2023-05-23T00:52:31.552Z,99.90
2023-05-23T00:57:40.713Z,99.90
2023-05-23T01:02:47.817Z,99.90
2023-05-23T01:07:51.988Z,99.90
2023-05-23T01:13:16.733Z,99.90
2023-05-23T01:18:44.059Z,99.90
2023-05-23T01:24:11.316Z,99.90
2023-05-23T01:29:47.309Z,99.90
2023-05-23T01:34:53.772Z,99.90
2023-05-23T01:39:56.500Z,99.90
2023-05-23T01:44:59.826Z,99.90
2023-05-23T01:50:03.706Z,99.90
2023-05-23T01:55:10.163Z,99.90
2023-05-23T02:00:15.635Z,99.90
2023-05-23T02:05:18.279Z,99.90
2023-05-23T02:10:21.501Z,99.90
2023-05-23T02:15:24.226Z,99.90
2023-05-23T02:20:26.994Z,99.90
2023-05-23T02:25:29.784Z,99.90
2023-05-23T02:30:32.543Z,99.90
2023-05-23T02:35:35.677Z,99.90
2023-05-23T02:40:38.568Z,99.90
2023-05-23T02:45:41.688Z,99.90
2023-05-23T02:50:44.763Z,99.90
2023-05-23T02:55:47.690Z,99.90
2023-05-23T03:00:50.772Z,99.90
2023-05-23T03:05:54.166Z,99.90
2023-05-23T03:10:57.046Z,99.90
2023-05-23T03:15:59.779Z,99.90
2023-05-23T03:21:02.680Z,99.90
2023-05-23T03:26:06.972Z,99.90
2023-05-23T03:31:11.017Z,99.90
2023-05-23T03:36:13.890Z,99.90
2023-05-23T03:41:17.223Z,99.90
2023-05-23T03:46:20.551Z,99.90
2023-05-23T03:51:24.554Z,99.90
2023-05-23T03:56:27.546Z,99.90
2023-05-23T04:01:30.708Z,99.90
2023-05-23T04:06:34.040Z,99.90
2023-05-23T04:11:36.994Z,99.90
2023-05-23T04:16:42.057Z,99.90
2023-05-23T04:21:45.662Z,99.90
2023-05-23T04:26:51.344Z,99.90
2023-05-23T04:31:55.353Z,99.90
2023-05-23T04:36:58.431Z,99.90
2023-05-23T04:42:01.178Z,99.90
2023-05-23T04:47:25.175Z,99.90
2023-05-23T04:52:37.215Z,99.90
2023-05-23T04:57:40.724Z,99.90
2023-05-23T05:02:43.909Z,99.90
2023-05-23T05:07:47.165Z,99.90
2023-05-23T05:12:50.064Z,99.90
2023-05-23T05:17:54.301Z,99.90
2023-05-23T05:22:58.980Z,99.90
2023-05-23T05:28:09.155Z,99.90
2023-05-23T05:33:25.753Z,99.90
2023-05-23T05:38:41.709Z,99.90
2023-05-23T05:43:44.926Z,99.90
2023-05-23T05:48:48.188Z,99.90
2023-05-23T05:53:53.084Z,99.90
2023-05-23T05:58:56.333Z,99.90
2023-05-23T06:04:00.202Z,99.90
2023-05-23T06:09:03.317Z,99.90
2023-05-23T06:14:06.135Z,99.90
2023-05-23T06:19:11.720Z,99.90
2023-05-23T06:24:16.074Z,99.90
2023-05-23T06:29:18.981Z,99.90
2023-05-23T06:34:21.818Z,99.90
2023-05-23T06:39:24.624Z,99.90
2023-05-23T06:44:27.349Z,99.90
2023-05-23T06:49:30.603Z,99.90
2023-05-23T06:54:33.454Z,99.90
2023-05-23T06:59:36.443Z,99.90
2023-05-23T07:04:40.440Z,99.90
2023-05-23T07:09:51.028Z,99.90
2023-05-23T07:14:55.370Z,99.90
2023-05-23T07:20:00.687Z,99.90
2023-05-23T07:25:06.914Z,99.90
2023-05-23T07:30:11.047Z,99.90
2023-05-23T07:35:15.206Z,99.00
2023-05-23T07:40:18.218Z,96.70
2023-05-23T07:45:21.138Z,97.30
2023-05-23T07:50:24.437Z,93.20
2023-05-23T07:55:27.360Z,94.50
2023-05-23T08:00:32.550Z,87.70
2023-05-23T08:05:44.500Z,82.60
2023-05-23T08:10:47.457Z,77.50
2023-05-23T08:15:57.443Z,65.00
2023-05-23T08:21:05.001Z,65.70
2023-05-23T08:26:07.818Z,71.40
2023-05-23T08:31:11.902Z,64.50
2023-05-23T08:36:15.083Z,61.20
2023-05-23T08:41:25.607Z,52.40
2023-05-23T08:46:38.291Z,48.00
2023-05-23T08:51:44.028Z,49.20
2023-05-23T08:56:53.163Z,41.70
2023-05-23T09:01:57.663Z,43.30
2023-05-23T09:07:01.636Z,35.70
2023-05-23T09:12:06.484Z,34.30
2023-05-23T09:17:10.776Z,35.70
2023-05-23T09:22:14.116Z,39.10
2023-05-23T09:27:33.292Z,31.80
2023-05-23T09:32:36.439Z,28.60
2023-05-23T09:37:43.557Z,23.50
2023-05-23T09:42:48.102Z,25.10
2023-05-23T09:47:52.454Z,26.30
2023-05-23T09:52:55.728Z,22.40
2023-05-23T09:58:00.333Z,21.90
2023-05-23T10:03:14.367Z,22.40
2023-05-23T10:08:26.907Z,21.10
2023-05-23T10:13:31.789Z,26.40
2023-05-23T10:18:40.255Z,18.80
2023-05-23T10:23:44.844Z,17.50
2023-05-23T10:28:50.096Z,15.10
2023-05-23T10:34:03.698Z,19.30
2023-05-23T10:39:30.185Z,14.00
2023-05-23T10:44:33.283Z,13.10
2023-05-23T10:49:44.562Z,9.10
2023-05-23T10:54:53.996Z,8.30
2023-05-23T10:59:57.635Z,9.70
2023-05-23T11:05:32.110Z,9.20
2023-05-23T11:10:52.952Z,10.50
2023-05-23T11:15:56.032Z,14.30
2023-05-23T11:21:00.299Z,8.10
2023-05-23T11:26:03.178Z,8.20
2023-05-23T11:31:06.148Z,11.10
2023-05-23T11:36:09.204Z,8.70
2023-05-23T11:41:12.103Z,10.50
2023-05-23T11:46:15.060Z,10.70
2023-05-23T11:51:18.357Z,8.30
2023-05-23T11:56:21.547Z,10.10
2023-05-23T12:01:31.834Z,10.30
2023-05-23T12:06:35.406Z,7.70
2023-05-23T12:11:39.786Z,11.90
2023-05-23T12:16:48.526Z,8.80
2023-05-23T12:21:51.255Z,10.90
2023-05-23T12:26:58.149Z,9.40
2023-05-23T12:32:04.541Z,9.90
2023-05-23T12:37:19.114Z,10.90
2023-05-23T12:42:23.331Z,11.00
2023-05-23T12:47:26.435Z,12.50
2023-05-23T12:52:29.315Z,8.60
2023-05-23T12:57:32.717Z,12.50
2023-05-23T13:02:35.846Z,9.70
2023-05-23T13:07:39.241Z,11.10
2023-05-23T13:12:43.471Z,12.50
2023-05-23T13:17:50.175Z,16.00
2023-05-23T13:22:53.562Z,16.30
2023-05-23T13:27:57.096Z,12.90
2023-05-23T13:33:00.474Z,13.80
2023-05-23T13:38:03.632Z,16.70
2023-05-23T13:43:06.934Z,16.10
2023-05-23T13:48:10.120Z,23.30
2023-05-23T13:53:15.460Z,23.20
2023-05-23T13:58:18.410Z,22.90
2023-05-23T14:03:21.886Z,24.60
2023-05-23T14:08:24.693Z,20.80
2023-05-23T14:13:27.521Z,22.70
2023-05-23T14:18:30.310Z,26.50
2023-05-23T14:23:33.160Z,28.40
2023-05-23T14:28:36.011Z,39.80
2023-05-23T14:33:38.856Z,56.20
2023-05-23T14:38:42.130Z,92.30
2023-05-23T14:43:45.114Z,99.90
2023-05-23T14:48:48.041Z,99.90
2023-05-23T14:53:50.960Z,99.90
2023-05-23T14:58:53.759Z,99.90
2023-05-23T15:03:56.720Z,99.90
2023-05-23T15:08:59.586Z,99.90
2023-05-23T15:14:02.603Z,99.90
2023-05-23T15:19:06.206Z,99.90
2023-05-23T15:24:09.569Z,99.90
2023-05-23T15:29:13.657Z,99.90
2023-05-23T15:34:16.448Z,99.90
2023-05-23T15:39:19.364Z,99.90
2023-05-23T15:44:22.506Z,99.90
2023-05-23T15:49:27.000Z,99.90
2023-05-23T15:54:30.132Z,99.90
2023-05-23T15:59:32.962Z,99.90
2023-05-23T16:04:36.555Z,99.90
2023-05-23T16:09:39.265Z,99.90
2023-05-23T16:14:41.964Z,99.90
2023-05-23T16:19:44.832Z,99.90
2023-05-23T16:24:47.537Z,99.90
2023-05-23T16:29:50.757Z,99.90
2023-05-23T16:34:54.656Z,99.90
2023-05-23T16:39:57.575Z,99.90
2023-05-23T16:45:00.712Z,99.90
2023-05-23T16:50:05.166Z,99.90
2023-05-23T16:55:08.290Z,99.90
2023-05-23T17:00:11.675Z,99.90
2023-05-23T17:05:15.524Z,99.90
2023-05-23T17:10:20.221Z,99.90
2023-05-23T17:15:23.272Z,99.90
2023-05-23T17:20:27.226Z,99.90
2023-05-23T17:25:30.070Z,99.90
2023-05-23T17:30:33.183Z,99.90
2023-05-23T17:35:36.027Z,99.90
2023-05-23T17:40:38.774Z,99.90
2023-05-23T17:45:41.814Z,99.90
2023-05-23T17:50:45.475Z,99.90
2023-05-23T17:55:48.908Z,99.90
2023-05-23T18:00:52.204Z,99.90
2023-05-23T18:05:55.116Z,99.90
2023-05-23T18:10:57.818Z,99.90
2023-05-23T18:16:00.892Z,99.90
2023-05-23T18:21:03.856Z,99.90
2023-05-23T18:26:06.597Z,99.90
2023-05-23T18:31:09.416Z,99.90
2023-05-23T18:36:12.215Z,99.90
2023-05-23T18:41:15.552Z,99.90
2023-05-23T18:46:18.270Z,99.90
2023-05-23T18:51:21.332Z,99.90
2023-05-23T18:56:23.999Z,99.90
2023-05-23T19:01:26.666Z,99.90
2023-05-23T19:06:29.509Z,99.90
2023-05-23T19:11:32.257Z,99.90
2023-05-23T19:16:36.489Z,99.90
2023-05-23T19:21:39.254Z,99.90
2023-05-23T19:26:42.865Z,99.90
2023-05-23T19:31:46.540Z,99.90
2023-05-23T19:36:50.235Z,99.90
2023-05-23T19:41:53.721Z,99.90
2023-05-23T19:46:56.449Z,99.90
2023-05-23T19:51:59.256Z,99.90
2023-05-23T19:57:02.676Z,99.90
2023-05-23T20:02:05.721Z,99.90
2023-05-23T20:07:08.448Z,99.90
2023-05-23T20:12:11.234Z,99.90
2023-05-23T20:17:14.244Z,99.90
2023-05-23T20:22:17.221Z,99.90
2023-05-23T20:27:20.028Z,99.90
2023-05-23T20:32:23.000Z,99.90
2023-05-23T20:37:25.815Z,99.90
2023-05-23T20:42:32.128Z,99.90
2023-05-23T20:47:41.622Z,99.90
2023-05-23T20:52:44.526Z,99.90
2023-05-23T20:57:47.306Z,99.90
2023-05-23T21:02:50.233Z,99.90
2023-05-23T21:07:53.485Z,99.90
2023-05-23T21:12:56.246Z,99.90
2023-05-23T21:17:59.113Z,99.90
2023-05-23T21:23:01.956Z,99.90
2023-05-23T21:28:04.816Z,99.90
2023-05-23T21:33:08.238Z,99.90
2023-05-23T21:38:11.182Z,99.90
2023-05-23T21:43:13.914Z,99.90
2023-05-23T21:48:17.166Z,99.90
2023-05-23T21:53:19.973Z,99.90
2023-05-23T21:58:22.757Z,99.90
2023-05-23T22:03:25.566Z,99.90
2023-05-23T22:08:32.119Z,99.90
2023-05-23T22:13:34.864Z,99.90
2023-05-23T22:18:51.168Z,99.90
2023-05-23T22:23:54.490Z,99.90
2023-05-23T22:28:57.379Z,99.90
2023-05-23T22:33:59.984Z,99.90
2023-05-23T22:39:05.339Z,99.90
2023-05-23T22:44:07.989Z,99.90
2023-05-23T22:49:10.658Z,99.90
2023-05-23T22:54:13.344Z,99.90
2023-05-23T22:59:16.207Z,99.90
2023-05-23T23:04:23.794Z,99.90
2023-05-23T23:09:27.237Z,99.90
2023-05-23T23:14:29.896Z,99.90
2023-05-23T23:19:35.531Z,99.90
2023-05-23T23:24:38.125Z,99.90
2023-05-23T23:29:40.898Z,99.90
2023-05-23T23:34:43.627Z,99.90
2023-05-23T23:39:46.414Z,99.90
2023-05-23T23:44:49.205Z,99.90
2023-05-23T23:49:52.155Z,99.90
2023-05-23T23:54:54.764Z,99.90
2023-05-23T23:59:57.492Z,99.90
